Time;durP1;ratioP1;P1;durP2;ratioP2;P2;SDS_P1;SDS_P2;PMS_P1;PMS_P2;Temp;Humidity;BMP_temperature;BMP_pressure;BME280_temperature;BME280_humidity;BME280_pressure;Samples;Min_cycle;Max_cycle;Signal;HPM_P1;HPM_P2
2022/11/07 00:02:24;;;;;;;3.08;1.10;;;10.20;99.90;;;;;;5091236;28;20099;-69
2022/11/07 00:04:50;;;;;;;1.15;0.98;;;10.30;99.90;;;;;;5091189;28;20039;-70
2022/11/07 00:07:16;;;;;;;2.08;1.20;;;10.20;99.90;;;;;;5090388;28;20104;-70
2022/11/07 00:09:41;;;;;;;1.25;0.95;;;10.20;99.90;;;;;;5090784;28;20571;-70
2022/11/07 00:12:07;;;;;;;1.23;0.80;;;10.20;99.90;;;;;;5091647;28;20067;-69
2022/11/07 00:14:33;;;;;;;1.92;0.90;;;10.10;99.90;;;;;;5089750;28;20370;-70
2022/11/07 00:16:59;;;;;;;0.85;0.65;;;10.10;99.90;;;;;;5089711;28;20024;-73
2022/11/07 00:19:24;;;;;;;2.30;1.00;;;10.10;99.90;;;;;;5090215;28;20464;-70
2022/11/07 00:21:50;;;;;;;0.90;0.90;;;10.10;99.90;;;;;;5091353;28;20048;-70
2022/11/07 00:24:17;;;;;;;1.10;0.90;;;10.10;99.90;;;;;;5091161;28;20040;-74
2022/11/07 00:26:46;;;;;;;0.80;0.80;;;10.10;99.90;;;;;;5092858;28;20366;-69
2022/11/07 00:29:13;;;;;;;1.00;0.88;;;10.30;99.90;;;;;;5069651;28;20470;-73
2022/11/07 00:31:39;;;;;;;2.35;0.60;;;10.30;99.90;;;;;;5088363;28;20031;-69
2022/11/07 00:34:05;;;;;;;0.70;0.70;;;10.30;99.90;;;;;;5069354;28;20028;-69
2022/11/07 00:36:31;;;;;;;0.55;0.55;;;10.40;99.90;;;;;;5090132;28;20200;-69
2022/11/07 00:38:57;;;;;;;0.82;0.80;;;10.40;99.90;;;;;;5091536;28;20444;-70
2022/11/07 00:41:22;;;;;;;1.05;0.77;;;10.40;99.90;;;;;;5093807;28;20102;-69
2022/11/07 00:43:48;;;;;;;0.82;0.70;;;10.40;99.90;;;;;;5094348;28;20054;-69
2022/11/07 00:46:15;;;;;;;1.55;0.70;;;10.40;99.90;;;;;;5093833;28;20020;-73
2022/11/07 00:48:41;;;;;;;1.58;0.45;;;10.40;99.90;;;;;;5072918;28;20541;-70
2022/11/07 00:51:17;;;;;;;2.80;0.70;;;10.40;99.90;;;;;;5102486;28;20099;-70
2022/11/07 00:53:43;;;;;;;1.15;0.80;;;10.40;99.90;;;;;;5076770;28;20107;-69
2022/11/07 00:56:11;;;;;;;0.77;0.75;;;10.40;99.90;;;;;;5093988;28;20020;-69
2022/11/07 00:58:37;;;;;;;1.08;0.80;;;10.50;99.90;;;;;;5092878;28;20073;-71
2022/11/07 01:01:08;;;;;;;0.60;0.60;;;10.50;99.90;;;;;;5092552;28;20032;-69
2022/11/07 01:06:18;;;;;;;0.93;0.73;;;10.50;99.90;;;;;;5091280;28;20490;-70
2022/11/07 01:08:44;;;;;;;1.80;0.80;;;10.50;99.90;;;;;;5093910;28;20024;-69
2022/11/07 01:11:09;;;;;;;1.15;0.88;;;10.60;99.90;;;;;;5093643;28;20067;-69
2022/11/07 01:13:35;;;;;;;2.63;0.85;;;10.50;99.90;;;;;;5098665;28;20457;-69
2022/11/07 01:16:01;;;;;;;0.70;0.70;;;10.50;99.90;;;;;;5101357;28;20342;-69
2022/11/07 01:18:27;;;;;;;2.15;0.90;;;10.40;99.90;;;;;;5102150;28;20024;-69
2022/11/07 01:20:52;;;;;;;1.88;0.63;;;10.30;99.90;;;;;;5101378;28;20080;-70
2022/11/07 01:23:18;;;;;;;0.75;0.52;;;10.30;99.90;;;;;;5095633;28;20031;-70
2022/11/07 01:25:44;;;;;;;2.38;0.93;;;10.20;99.90;;;;;;5100559;28;20054;-70
2022/11/07 01:28:10;;;;;;;0.82;0.70;;;10.00;99.90;;;;;;5101448;28;20036;-70
2022/11/07 01:30:44;;;;;;;1.27;0.90;;;10.00;99.90;;;;;;5099655;28;20037;-69
2022/11/07 01:33:10;;;;;;;1.08;0.80;;;9.90;99.90;;;;;;5102269;28;20028;-69
2022/11/07 01:35:36;;;;;;;2.05;1.00;;;9.90;99.90;;;;;;5099704;28;20020;-69
2022/11/07 01:38:02;;;;;;;1.25;0.70;;;9.90;99.90;;;;;;5099959;28;20059;-69
2022/11/07 01:40:27;;;;;;;2.17;0.90;;;10.00;99.90;;;;;;5099710;28;20031;-69
2022/11/07 01:42:53;;;;;;;1.45;1.02;;;10.00;99.90;;;;;;5101435;28;20083;-69
2022/11/07 01:45:29;;;;;;;2.42;0.90;;;10.00;99.90;;;;;;5101046;28;20532;-70
2022/11/07 01:47:59;;;;;;;1.40;0.80;;;9.90;99.90;;;;;;5103407;28;20461;-70
2022/11/07 01:50:25;;;;;;;1.70;0.80;;;9.90;99.90;;;;;;5100333;28;20074;-70
2022/11/07 01:52:52;;;;;;;1.80;0.90;;;9.90;99.90;;;;;;5102810;28;20035;-70
2022/11/07 01:55:31;;;;;;;2.05;1.10;;;9.90;99.90;;;;;;5093826;28;20047;-70
2022/11/07 01:58:02;;;;;;;1.85;0.98;;;9.90;99.90;;;;;;5098590;28;20103;-70
2022/11/07 02:00:28;;;;;;;1.27;1.08;;;10.00;99.90;;;;;;5079294;28;20464;-70
2022/11/07 02:03:08;;;;;;;0.90;0.90;;;9.90;99.90;;;;;;5101869;28;20036;-69
2022/11/07 02:05:40;;;;;;;1.67;0.93;;;9.90;99.90;;;;;;5101647;28;20614;-70
2022/11/07 02:08:07;;;;;;;2.13;0.90;;;9.90;99.90;;;;;;5101230;28;20481;-70
2022/11/07 02:10:38;;;;;;;1.75;1.15;;;10.00;99.90;;;;;;5079953;28;20029;-70
2022/11/07 02:13:04;;;;;;;2.22;0.85;;;10.00;99.90;;;;;;5102827;28;20099;-70
2022/11/07 02:15:31;;;;;;;2.17;0.90;;;10.00;99.90;;;;;;5081957;28;20032;-71
2022/11/07 02:17:57;;;;;;;2.63;1.10;;;9.90;99.90;;;;;;5093495;28;20047;-70
2022/11/07 02:20:23;;;;;;;3.58;1.08;;;9.90;99.90;;;;;;5096080;28;20031;-70
2022/11/07 02:22:55;;;;;;;1.83;1.00;;;9.90;99.90;;;;;;5098421;28;20051;-70
2022/11/07 02:25:21;;;;;;;2.00;1.08;;;9.90;99.90;;;;;;5091400;28;20046;-70
2022/11/07 02:27:52;;;;;;;1.63;0.93;;;9.90;99.90;;;;;;5092827;28;20385;-70
2022/11/07 02:30:22;;;;;;;3.10;1.23;;;10.00;99.90;;;;;;5091635;28;20512;-70
2022/11/07 02:32:48;;;;;;;5.28;0.90;;;10.00;99.90;;;;;;5092571;28;20089;-70
2022/11/07 02:35:37;;;;;;;1.60;1.13;;;10.00;99.90;;;;;;5085534;28;20465;-73
2022/11/07 02:38:09;;;;;;;2.10;1.23;;;10.00;99.90;;;;;;5079674;28;20048;-70
2022/11/07 02:40:35;;;;;;;3.35;0.77;;;10.10;99.90;;;;;;5091239;28;20068;-70
2022/11/07 02:43:02;;;;;;;1.08;0.85;;;10.10;99.90;;;;;;5092437;28;20059;-71
2022/11/07 02:45:31;;;;;;;1.15;1.00;;;10.10;99.90;;;;;;5091243;28;20028;-69
2022/11/07 02:47:57;;;;;;;2.72;0.90;;;10.20;99.90;;;;;;5090758;28;20024;-68
2022/11/07 02:50:23;;;;;;;1.58;1.20;;;10.20;99.90;;;;;;5087837;28;20036;-69
2022/11/07 02:52:49;;;;;;;0.95;0.88;;;10.30;99.90;;;;;;5088641;28;20495;-69
2022/11/07 02:55:14;;;;;;;3.45;1.27;;;10.30;99.90;;;;;;5090959;28;20028;-73
2022/11/07 02:57:41;;;;;;;1.15;0.82;;;10.30;99.90;;;;;;5092296;28;20638;-69
2022/11/07 03:00:08;;;;;;;2.22;1.02;;;10.30;99.90;;;;;;5091252;28;20040;-69
2022/11/07 03:02:34;;;;;;;2.05;1.17;;;10.40;99.90;;;;;;5090508;28;20035;-69
2022/11/07 03:05:00;;;;;;;1.60;0.85;;;10.40;99.90;;;;;;5091399;28;20028;-69
2022/11/07 03:07:25;;;;;;;1.25;0.93;;;10.40;99.90;;;;;;5085571;28;20024;-69
2022/11/07 03:09:51;;;;;;;2.78;1.13;;;10.50;99.90;;;;;;5091464;28;20402;-69
2022/11/07 03:12:17;;;;;;;3.88;1.15;;;10.50;99.90;;;;;;5090968;28;20063;-69
2022/11/07 03:14:43;;;;;;;1.60;0.98;;;10.60;99.90;;;;;;5091210;28;20477;-70
2022/11/07 03:17:09;;;;;;;2.35;1.10;;;10.70;99.90;;;;;;5091426;28;20059;-71
2022/11/07 03:19:34;;;;;;;2.00;1.20;;;10.70;99.90;;;;;;5089353;28;20125;-69
2022/11/07 03:22:00;;;;;;;1.40;1.00;;;10.70;99.90;;;;;;5084749;28;20493;-69
2022/11/07 03:24:26;;;;;;;2.45;0.93;;;10.80;99.90;;;;;;5087163;28;20097;-69
2022/11/07 03:26:51;;;;;;;1.95;0.90;;;10.80;99.90;;;;;;5091609;28;20027;-69
2022/11/07 03:29:17;;;;;;;1.83;0.88;;;10.80;99.90;;;;;;5090377;28;20095;-71
2022/11/07 03:31:42;;;;;;;2.33;0.90;;;10.90;99.90;;;;;;5091101;28;20093;-69
2022/11/07 03:34:08;;;;;;;3.28;0.88;;;10.80;99.90;;;;;;5091661;28;20028;-70
2022/11/07 03:36:34;;;;;;;2.38;1.40;;;10.80;99.90;;;;;;5089737;28;20044;-70
2022/11/07 03:38:59;;;;;;;1.38;0.88;;;10.90;99.90;;;;;;5091818;28;20028;-70
2022/11/07 03:41:25;;;;;;;2.15;1.20;;;10.90;99.90;;;;;;5071329;28;20046;-71
2022/11/07 03:43:51;;;;;;;2.55;1.05;;;10.90;99.90;;;;;;5091479;28;20043;-69
2022/11/07 03:46:17;;;;;;;7.85;1.00;;;10.90;99.90;;;;;;5090412;28;20043;-70
2022/11/07 03:48:42;;;;;;;1.00;0.90;;;10.90;99.90;;;;;;5090259;28;20517;-70
2022/11/07 03:51:09;;;;;;;1.83;1.08;;;10.90;99.90;;;;;;5090049;28;20036;-69
2022/11/07 03:53:35;;;;;;;2.15;0.73;;;11.00;99.90;;;;;;5090513;28;20067;-69
2022/11/07 03:56:09;;;;;;;1.98;1.02;;;11.00;99.90;;;;;;5090941;28;20381;-70
2022/11/07 03:58:35;;;;;;;3.65;0.95;;;10.90;99.90;;;;;;5084578;28;20017;-69
2022/11/07 04:01:02;;;;;;;1.67;0.98;;;11.00;99.90;;;;;;5090505;28;20032;-69
2022/11/07 04:03:27;;;;;;;2.38;0.85;;;11.00;99.90;;;;;;5090366;28;20121;-69
2022/11/07 04:05:53;;;;;;;2.33;0.77;;;11.00;99.90;;;;;;5090917;28;20330;-69
2022/11/07 04:08:19;;;;;;;2.38;0.95;;;11.00;99.90;;;;;;5090072;28;20032;-70
2022/11/07 04:10:45;;;;;;;1.45;0.82;;;11.00;99.90;;;;;;5090900;28;20469;-69
2022/11/07 04:18:54;;;;;;;1.45;0.75;;;10.90;99.90;;;;;;5039053;28;20040;-70
2022/11/07 04:21:19;;;;;;;0.80;0.80;;;10.90;99.90;;;;;;5082219;28;20032;-70
2022/11/07 04:23:45;;;;;;;1.75;0.90;;;10.90;99.90;;;;;;5076891;28;20038;-70
2022/11/07 04:28:55;;;;;;;1.83;1.02;;;10.80;99.90;;;;;;5087415;28;20031;-70
2022/11/07 04:31:21;;;;;;;5.18;0.98;;;10.80;99.90;;;;;;5090736;28;20032;-70
2022/11/07 04:33:46;;;;;;;3.78;0.95;;;10.70;99.90;;;;;;5081398;28;20043;-70
2022/11/07 04:36:12;;;;;;;2.22;0.90;;;10.70;99.90;;;;;;5093591;28;20052;-74
2022/11/07 04:38:38;;;;;;;2.75;0.63;;;10.70;99.90;;;;;;5094475;28;20024;-68
2022/11/07 04:41:04;;;;;;;3.60;1.27;;;10.60;99.90;;;;;;5093878;28;20468;-68
2022/11/07 04:43:29;;;;;;;2.65;0.90;;;10.60;99.90;;;;;;5094124;28;20044;-68
2022/11/07 04:45:55;;;;;;;2.28;0.88;;;10.60;99.90;;;;;;5076113;28;20043;-69
2022/11/07 04:48:20;;;;;;;1.55;1.00;;;10.60;99.90;;;;;;5092898;28;20043;-69
2022/11/07 04:50:46;;;;;;;1.25;0.80;;;10.60;99.90;;;;;;5089513;28;20075;-69
2022/11/07 04:53:14;;;;;;;1.77;1.02;;;10.50;99.90;;;;;;5094007;28;20043;-73
2022/11/07 04:55:41;;;;;;;4.63;1.02;;;10.40;99.90;;;;;;5094490;28;20107;-69
2022/11/07 04:58:07;;;;;;;3.05;1.23;;;10.40;99.90;;;;;;5094688;28;20056;-69
2022/11/07 05:00:33;;;;;;;2.85;1.05;;;10.30;99.90;;;;;;5074288;28;20666;-68
2022/11/07 05:02:58;;;;;;;1.55;1.05;;;10.30;99.90;;;;;;5094279;28;20028;-69
2022/11/07 05:05:24;;;;;;;3.40;1.50;;;10.20;99.90;;;;;;5093089;28;20103;-69
2022/11/07 05:07:50;;;;;;;1.15;0.77;;;10.20;99.90;;;;;;5094426;28;20024;-69
2022/11/07 05:10:27;;;;;;;2.97;0.88;;;10.20;99.90;;;;;;5087462;28;20028;-69
2022/11/07 05:12:53;;;;;;;1.58;0.90;;;10.20;99.90;;;;;;5094073;28;20091;-70
2022/11/07 05:15:19;;;;;;;4.20;1.13;;;10.10;99.90;;;;;;5074950;28;20023;-70
2022/11/07 05:17:45;;;;;;;1.73;1.10;;;10.00;99.90;;;;;;5093353;28;20115;-70
2022/11/07 05:20:25;;;;;;;2.15;1.02;;;10.00;99.90;;;;;;5091010;28;20055;-71
2022/11/07 05:25:35;;;;;;;2.78;1.13;;;9.80;99.90;;;;;;5086740;28;21049;-69
2022/11/07 05:28:00;;;;;;;2.45;0.90;;;9.70;99.90;;;;;;5092732;28;20036;-70
2022/11/07 05:30:26;;;;;;;1.08;0.82;;;9.60;99.90;;;;;;5092705;28;20561;-69
2022/11/07 05:32:51;;;;;;;2.88;1.10;;;9.50;99.90;;;;;;5071479;28;20060;-68
2022/11/07 05:35:17;;;;;;;3.33;1.52;;;9.50;99.90;;;;;;5092259;28;20039;-70
2022/11/07 05:37:42;;;;;;;2.28;1.15;;;9.40;99.90;;;;;;5092776;28;20067;-69
2022/11/07 05:40:09;;;;;;;2.38;1.50;;;9.30;99.90;;;;;;5092934;28;20107;-69
2022/11/07 05:42:34;;;;;;;3.03;0.98;;;9.30;99.90;;;;;;5092822;28;20042;-69
2022/11/07 05:45:00;;;;;;;3.13;1.30;;;9.30;99.90;;;;;;5087469;28;20036;-69
2022/11/07 05:47:25;;;;;;;6.95;3.60;;;9.20;99.90;;;;;;5091043;28;20024;-69
2022/11/07 05:49:51;;;;;;;11.90;6.07;;;9.20;99.90;;;;;;5092662;28;20029;-70
2022/11/07 05:52:16;;;;;;;11.45;5.95;;;9.20;99.90;;;;;;5092476;28;20437;-68
2022/11/07 05:54:42;;;;;;;7.90;3.97;;;9.20;99.90;;;;;;5092586;28;20074;-70
2022/11/07 05:57:07;;;;;;;5.47;1.90;;;9.20;99.90;;;;;;5092826;28;20028;-69
2022/11/07 05:59:33;;;;;;;2.53;1.50;;;9.30;99.90;;;;;;5087100;28;20052;-69
2022/11/07 06:01:59;;;;;;;4.97;1.63;;;9.30;99.90;;;;;;5073867;28;20036;-69
2022/11/07 06:04:24;;;;;;;3.63;1.33;;;9.30;99.90;;;;;;5091558;28;20115;-68
2022/11/07 06:06:50;;;;;;;5.32;1.90;;;9.40;99.90;;;;;;5092836;28;20117;-69
2022/11/07 06:09:15;;;;;;;4.13;1.60;;;9.50;99.90;;;;;;5092169;28;20024;-73
2022/11/07 06:11:41;;;;;;;3.53;1.50;;;9.50;99.90;;;;;;5092754;28;20028;-68
2022/11/07 06:14:06;;;;;;;2.45;1.27;;;9.80;99.90;;;;;;5092838;28;20038;-69
2022/11/07 06:16:32;;;;;;;5.85;1.67;;;9.90;99.90;;;;;;5088709;28;20572;-72
2022/11/07 06:18:58;;;;;;;3.05;1.30;;;9.90;99.90;;;;;;5089122;28;20028;-70
2022/11/07 06:21:23;;;;;;;4.28;1.70;;;10.00;99.90;;;;;;5083320;28;20032;-70
2022/11/07 06:23:49;;;;;;;3.58;0.90;;;10.00;99.90;;;;;;5092213;28;20105;-70
2022/11/07 06:26:14;;;;;;;1.50;0.80;;;10.00;99.90;;;;;;5090998;28;20023;-70
2022/11/07 06:28:40;;;;;;;2.30;0.90;;;10.00;99.90;;;;;;5092435;28;20027;-70
2022/11/07 06:31:06;;;;;;;2.97;1.00;;;10.00;99.90;;;;;;5091304;28;20043;-68
2022/11/07 06:33:32;;;;;;;4.90;1.58;;;10.00;99.90;;;;;;5087894;28;20055;-69
2022/11/07 06:36:08;;;;;;;2.92;1.38;;;10.10;99.90;;;;;;5086917;28;20476;-69
2022/11/07 06:38:35;;;;;;;5.03;1.83;;;10.20;99.90;;;;;;5090747;28;20647;-69
2022/11/07 06:41:08;;;;;;;8.05;2.28;;;10.30;99.90;;;;;;5091524;28;20508;-69
2022/11/07 06:43:35;;;;;;;5.55;1.55;;;10.30;99.90;;;;;;5091566;28;20142;-68
2022/11/07 06:46:06;;;;;;;5.20;1.15;;;10.40;99.90;;;;;;5091524;28;20099;-69
2022/11/07 06:48:33;;;;;;;3.78;1.40;;;10.50;99.90;;;;;;5091319;28;20036;-70
2022/11/07 06:50:59;;;;;;;4.25;1.15;;;10.60;99.90;;;;;;5091654;28;20020;-69
2022/11/07 06:53:26;;;;;;;3.85;1.40;;;10.60;99.90;;;;;;5087685;28;20347;-69
2022/11/07 06:55:52;;;;;;;3.85;1.35;;;10.70;99.90;;;;;;5091125;28;20028;-69
2022/11/07 06:58:17;;;;;;;5.32;1.52;;;10.80;99.90;;;;;;5091412;28;20530;-70
2022/11/07 07:00:43;;;;;;;2.20;1.05;;;10.80;99.90;;;;;;5090403;28;20074;-70
2022/11/07 07:03:10;;;;;;;4.28;1.02;;;10.80;99.90;;;;;;5091771;28;20060;-69
2022/11/07 07:05:36;;;;;;;3.90;1.48;;;10.90;99.90;;;;;;5090877;28;20028;-70
2022/11/07 07:08:03;;;;;;;8.60;1.65;;;10.90;99.90;;;;;;5091638;28;20038;-71
2022/11/07 07:10:29;;;;;;;4.32;1.23;;;10.90;99.90;;;;;;5090328;28;20028;-72
2022/11/07 07:12:55;;;;;;;5.38;1.30;;;10.90;99.90;;;;;;5085827;28;20471;-70
2022/11/07 07:15:21;;;;;;;5.38;1.55;;;11.00;99.90;;;;;;5072256;28;20322;-71
2022/11/07 07:17:47;;;;;;;2.65;1.30;;;11.00;99.90;;;;;;5073366;28;20085;-70
2022/11/07 07:20:12;;;;;;;3.53;1.35;;;11.00;99.90;;;;;;5089325;28;20150;-71
2022/11/07 07:22:38;;;;;;;4.07;1.30;;;10.90;99.90;;;;;;5085225;28;20497;-72
2022/11/07 07:25:04;;;;;;;2.13;1.33;;;10.90;99.90;;;;;;5089150;28;20384;-73
2022/11/07 07:27:29;;;;;;;3.00;1.30;;;10.90;99.90;;;;;;5085803;28;20406;-70
2022/11/07 07:29:55;;;;;;;5.82;1.77;;;10.90;99.90;;;;;;5090552;28;20030;-69
2022/11/07 07:32:23;;;;;;;8.23;2.22;;;10.90;99.90;;;;;;5090470;28;20055;-70
2022/11/07 07:34:49;;;;;;;8.30;2.20;;;10.90;99.90;;;;;;5090541;28;20047;-70
2022/11/07 07:37:15;;;;;;;10.43;1.80;;;10.90;99.90;;;;;;5089477;28;20060;-75
2022/11/07 07:39:40;;;;;;;5.30;2.28;;;10.90;99.90;;;;;;5070741;28;20103;-72
2022/11/07 07:42:06;;;;;;;5.25;2.03;;;11.00;99.90;;;;;;5090824;28;20059;-70
2022/11/07 07:44:32;;;;;;;6.20;1.70;;;11.00;99.90;;;;;;5089454;28;20031;-70
2022/11/07 07:46:57;;;;;;;5.57;2.00;;;11.10;99.90;;;;;;5084545;28;20024;-69
2022/11/07 07:49:23;;;;;;;5.18;2.13;;;11.10;99.90;;;;;;5088866;28;20477;-70
2022/11/07 07:51:48;;;;;;;6.82;2.25;;;11.20;99.90;;;;;;5087668;28;20084;-70
2022/11/07 07:54:14;;;;;;;5.82;1.63;;;11.30;99.90;;;;;;5088675;28;20024;-73
2022/11/07 07:56:39;;;;;;;8.05;1.83;;;11.40;99.90;;;;;;5089967;28;20460;-70
2022/11/07 07:59:05;;;;;;;7.13;1.58;;;11.50;99.90;;;;;;5090913;28;20453;-70
2022/11/07 08:01:31;;;;;;;6.30;1.63;;;11.60;99.90;;;;;;5089402;28;20197;-70
2022/11/07 08:03:56;;;;;;;3.65;1.40;;;11.80;99.90;;;;;;5087721;28;20083;-69
2022/11/07 08:06:22;;;;;;;4.10;1.33;;;12.00;99.90;;;;;;5088914;28;20481;-70
2022/11/07 08:08:47;;;;;;;5.35;1.23;;;12.10;99.90;;;;;;5089349;28;20095;-69
2022/11/07 08:11:13;;;;;;;6.68;1.60;;;12.20;99.90;;;;;;5089284;28;20039;-70
2022/11/07 08:13:39;;;;;;;3.85;1.35;;;12.40;99.90;;;;;;5072242;28;20024;-69
2022/11/07 08:16:06;;;;;;;7.25;1.73;;;12.40;99.90;;;;;;5090141;28;20055;-69
2022/11/07 08:18:35;;;;;;;6.68;1.20;;;12.50;99.90;;;;;;5068938;28;20020;-69
2022/11/07 08:21:00;;;;;;;4.22;1.40;;;12.60;99.90;;;;;;5085069;28;20085;-69
2022/11/07 08:23:26;;;;;;;5.22;1.70;;;12.60;99.90;;;;;;5069471;28;20032;-69
2022/11/07 08:25:54;;;;;;;6.47;2.30;;;;;;;;;;5089208;28;20055;-69
2022/11/07 08:28:25;;;;;;;4.45;1.70;;;;;;;;;;5083413;28;20461;-68
2022/11/07 08:30:55;;;;;;;;;;;;;;;;;;5088858;28;20032;-70
2022/11/07 08:33:21;;;;;;;4.88;1.58;;;;;;;;;;5089687;28;19995;-69
2022/11/07 08:35:46;;;;;;;7.03;1.70;;;;;;;;;;5089771;28;20047;-69
2022/11/07 08:38:12;;;;;;;4.95;1.65;;;;;;;;;;5088176;28;20043;-73
2022/11/07 08:40:38;;;;;;;7.18;1.75;;;;;;;;;;5089797;28;20028;-69
2022/11/07 08:43:04;;;;;;;6.55;1.50;;;;;;;;;;5089970;28;20346;-68
2022/11/07 08:45:30;;;;;;;5.80;1.88;;;;;;;;;;5090779;28;20024;-68
2022/11/07 08:47:57;;;;;;;6.63;1.80;;;;;;;;;;5072486;28;20372;-68
2022/11/07 08:50:23;;;;;;;4.25;1.35;;;;;;;;;;5087429;28;20024;-68
2022/11/07 08:52:49;;;;;;;6.75;1.45;;;;;;;;;;5089479;28;20032;-68
2022/11/07 08:55:15;;;;;;;13.77;1.95;;;;;;;;;;5089647;28;20119;-68
2022/11/07 08:57:41;;;;;;;9.27;2.63;;;;;;;;;;5090724;28;20012;-69
2022/11/07 09:00:07;;;;;;;5.50;1.73;;;;;;;;;;5090743;28;20028;-68
2022/11/07 09:02:33;;;;;;;4.50;1.83;;;;;;;;;;5093212;28;20043;-68
2022/11/07 09:04:59;;;;;;;9.93;2.42;;;;;;;;;;5093410;28;20480;-69
2022/11/07 09:07:25;;;;;;;6.82;1.85;;;;;;;;;;5075106;28;20095;-68
2022/11/07 09:09:51;;;;;;;7.55;1.95;;;;;;;;;;5093448;28;20043;-69
2022/11/07 09:12:17;;;;;;;9.48;2.53;;;;;;;;;;5093425;28;20039;-69
2022/11/07 09:14:43;;;;;;;8.00;1.90;;;;;;;;;;5090537;28;20526;-69
2022/11/07 09:17:09;;;;;;;6.55;2.13;;;;;;;;;;5093046;28;20028;-69
2022/11/07 09:19:35;;;;;;;7.82;1.65;;;;;;;;;;5092003;28;20078;-71
2022/11/07 09:22:01;;;;;;;4.50;1.95;;;;;;;;;;5087219;28;20384;-69
2022/11/07 09:24:27;;;;;;;6.15;2.20;;;;;;;;;;5085114;28;20028;-68
2022/11/07 09:26:53;;;;;;;6.00;1.77;;;;;;;;;;5093171;28;20526;-69
2022/11/07 09:29:19;;;;;;;8.10;1.70;;;;;;;;;;5091978;28;20046;-69
2022/11/07 09:31:45;;;;;;;7.55;1.63;;;;;;;;;;5093150;28;20023;-68
2022/11/07 09:34:11;;;;;;;4.72;1.60;;;;;;;;;;5094972;28;20393;-71
2022/11/07 09:36:37;;;;;;;8.45;1.80;;;;;;;;;;5096102;28;20051;-69
2022/11/07 09:39:03;;;;;;;6.18;1.77;;;;;;;;;;5091094;28;20029;-68
2022/11/07 09:41:29;;;;;;;5.47;1.42;;;;;;;;;;5087462;28;20056;-69
2022/11/07 09:44:14;;;;;;;6.88;1.35;;;;;;;;;;5094044;28;20074;-69
2022/11/07 09:46:59;;;;;;;6.60;1.42;;;;;;;;;;5098688;28;20487;-70
2022/11/07 09:49:36;;;;;;;4.85;1.27;;;;;;;;;;5091784;28;20111;-68
2022/11/07 09:52:12;;;;;;;5.95;1.55;;;;;;;;;;5092676;28;20520;-69
2022/11/07 09:54:41;;;;;;;2.88;1.33;;;;;;;;;;5091817;28;20028;-69
2022/11/07 09:57:09;;;;;;;3.50;1.67;;;;;;;;;;5092503;28;20085;-69
2022/11/07 10:00:14;;;;;;;4.30;1.45;;;;;;;;;;5091883;28;20099;-69
2022/11/07 10:02:50;;;;;;;6.15;1.52;;;;;;;;;;5029676;28;20037;-69
2022/11/07 10:05:22;;;;;;;5.10;1.20;;;;;;;;;;5028887;28;20475;-69
2022/11/07 10:08:04;;;;;;;5.10;1.40;;;;;;;;;;5030064;28;20033;-69
2022/11/07 10:10:37;;;;;;;8.50;1.90;;;;;;;;;;5023375;28;20372;-68
2022/11/07 10:13:23;;;;;;;6.07;1.52;;;;;;;;;;5029350;28;20231;-69
2022/11/07 10:15:54;;;;;;;6.05;1.45;;;;;;;;;;5027522;28;20096;-69
2022/11/07 10:18:25;;;;;;;5.07;1.25;;;;;;;;;;5029349;28;20406;-68
2022/11/07 10:21:00;;;;;;;5.00;1.70;;;;;;;;;;5029351;28;20414;-69
2022/11/07 10:23:29;;;;;;;6.95;2.15;;;;;;;;;;5029212;28;20040;-70
2022/11/07 10:26:14;;;;;;;5.35;1.75;;;;;;;;;;5029394;28;20391;-70
2022/11/07 10:28:44;;;;;;;8.10;2.13;;;;;;;;;;5029589;28;20466;-70
2022/11/07 10:31:10;;;;;;;;;;;;;;;;;;5029548;28;20108;-70
2022/11/07 10:33:37;;;;;;;8.00;1.80;;;;;;;;;;5064896;28;20007;-70
2022/11/07 10:36:19;;;;;;;6.28;2.10;;;;;;;;;;5095705;28;20431;-70
2022/11/07 10:38:45;;;;;;;8.27;1.60;;;;;;;;;;5074117;28;20048;-70
2022/11/07 10:41:14;;;;;;;17.10;1.85;;;;;;;;;;5071509;28;20075;-70
2022/11/07 10:43:41;;;;;;;4.35;0.95;;;;;;;;;;5071419;28;20415;-70
2022/11/07 10:46:13;;;;;;;7.40;2.00;;;;;;;;;;5067576;28;20029;-70
2022/11/07 10:48:49;;;;;;;4.47;1.48;;;;;;;;;;5071203;28;20027;-70
2022/11/07 10:51:15;;;;;;;4.07;1.38;;;;;;;;;;5070541;28;20025;-72
2022/11/07 10:53:44;;;;;;;7.47;1.80;;;;;;;;;;5071382;28;20028;-69
2022/11/07 10:56:11;;;;;;;5.78;1.73;;;;;;;;;;5071253;28;20025;-69
2022/11/07 10:58:42;;;;;;;6.65;1.98;;;;;;;;;;5071371;28;20027;-69
2022/11/07 11:01:09;;;;;;;6.75;1.70;;;;;;;;;;5069940;28;20362;-70
2022/11/07 11:03:39;;;;;;;3.83;1.80;;;;;;;;;;5070334;28;20419;-69
2022/11/07 11:06:18;;;;;;;6.30;1.80;;;;;;;;;;5070987;28;20020;-70
2022/11/07 11:08:48;;;;;;;7.63;1.50;;;;;;;;;;5071514;28;20462;-69
2022/11/07 11:11:24;;;;;;;5.28;1.42;;;;;;;;;;5063762;28;20038;-74
2022/11/07 11:14:00;;;;;;;4.72;1.70;;;;;;;;;;5072262;28;20032;-69
2022/11/07 11:16:27;;;;;;;7.97;1.77;;;;;;;;;;5070438;28;20108;-71
2022/11/07 11:18:58;;;;;;;9.60;2.10;;;;;;;;;;5074636;28;20025;-71
2022/11/07 11:21:24;;;;;;;4.63;1.50;;;;;;;;;;5044146;28;20031;-71
2022/11/07 11:23:51;;;;;;;6.00;1.50;;;;;;;;;;5069332;28;20031;-70
2022/11/07 11:26:20;;;;;;;5.15;1.45;;;;;;;;;;5069557;28;20024;-71
2022/11/07 11:28:54;;;;;;;6.25;1.30;;;;;;;;;;5071316;28;20070;-71
2022/11/07 11:31:33;;;;;;;9.55;1.80;;;;;;;;;;5069893;28;20037;-71
2022/11/07 11:34:04;;;;;;;7.75;1.98;;;;;;;;;;5068511;28;20100;-71
2022/11/07 11:36:35;;;;;;;5.82;1.35;;;;;;;;;;5072642;28;20093;-70
2022/11/07 11:39:03;;;;;;;10.10;1.88;;;;;;;;;;5090950;28;20028;-70
2022/11/07 11:41:35;;;;;;;5.70;1.80;;;;;;;;;;5089513;28;20032;-70
2022/11/07 11:44:20;;;;;;;3.45;1.25;;;16.40;99.90;;;;;;5090816;28;20061;-70
2022/11/07 11:47:15;;;;;;;2.53;1.20;;;16.40;99.90;;;;;;5080257;28;20488;-71
2022/11/07 11:50:08;;;;;;;6.32;1.20;;;16.40;99.90;;;;;;5080832;28;20044;-71
2022/11/07 11:52:34;;;;;;;5.10;1.38;;;16.40;99.90;;;;;;5087249;28;20024;-70
2022/11/07 11:55:00;;;;;;;4.28;1.63;;;16.40;99.90;;;;;;5071992;28;20389;-69
2022/11/07 11:57:41;;;;;;;5.53;1.50;;;16.50;99.90;;;;;;5090407;28;20035;-70
2022/11/07 12:00:17;;;;;;;5.53;1.33;;;16.40;99.90;;;;;;5090620;28;20032;-70
2022/11/07 12:03:32;;;;;;;3.97;1.17;;;16.30;99.90;;;;;;5077599;28;20028;-71
2022/11/07 12:06:07;;;;;;;3.67;1.20;;;16.30;99.90;;;;;;5089964;28;20156;-70
2022/11/07 12:09:11;;;;;;;5.68;1.90;;;16.30;99.90;;;;;;5084544;28;20031;-71
2022/11/07 12:12:03;;;;;;;2.72;0.77;;;16.30;99.90;;;;;;4987205;28;20207;-70
2022/11/07 12:15:08;;;;;;;2.63;1.08;;;16.30;99.90;;;;;;4986398;28;20030;-71
2022/11/07 12:17:40;;;;;;;3.35;1.17;;;16.30;99.90;;;;;;4982081;28;20179;-71
2022/11/07 12:20:44;;;;;;;4.07;1.23;;;16.40;99.90;;;;;;4986481;28;20624;-71
2022/11/07 12:23:28;;;;;;;2.75;1.02;;;16.50;99.90;;;;;;4971509;28;20475;-70
2022/11/07 12:26:10;;;;;;;3.22;1.20;;;16.50;99.90;;;;;;4966740;28;20037;-71
2022/11/07 12:28:44;;;;;;;2.75;1.20;;;16.50;99.90;;;;;;4988376;28;20672;-69
2022/11/07 12:31:18;;;;;;;6.95;0.90;;;16.50;99.90;;;;;;4988291;28;20026;-70
2022/11/07 12:34:16;;;;;;;5.45;1.13;;;16.40;99.90;;;;;;4987901;28;20043;-70
2022/11/07 12:37:07;;;;;;;3.25;1.00;;;16.50;99.90;;;;;;4985511;28;20521;-70
2022/11/07 12:39:45;;;;;;;3.80;0.90;;;16.40;99.90;;;;;;4991014;28;20080;-71
2022/11/07 12:42:26;;;;;;;4.32;1.73;;;16.40;99.90;;;;;;5022827;28;20050;-70
2022/11/07 12:44:54;;;;;;;3.75;1.10;;;16.50;99.90;;;;;;5066448;28;20056;-70
2022/11/07 12:47:54;;;;;;;2.88;1.20;;;16.40;99.90;;;;;;5072944;28;20042;-71
2022/11/07 12:50:52;;;;;;;6.05;1.15;;;16.50;99.90;;;;;;5071745;28;20067;-71
2022/11/07 12:53:33;;;;;;;2.00;0.88;;;16.60;99.90;;;;;;5073011;28;20096;-71
2022/11/07 12:56:16;;;;;;;4.65;1.10;;;16.50;99.90;;;;;;5073150;28;20082;-71
2022/11/07 12:58:43;;;;;;;3.70;1.30;;;16.50;99.90;;;;;;5062393;28;20031;-70
2022/11/07 13:01:13;;;;;;;5.72;1.30;;;16.50;99.90;;;;;;5072980;28;20032;-71
2022/11/07 13:03:51;;;;;;;3.97;0.60;;;16.40;99.90;;;;;;5073129;28;20119;-73
2022/11/07 13:06:29;;;;;;;1.75;0.95;;;16.30;99.90;;;;;;5072055;28;20029;-70
2022/11/07 13:09:30;;;;;;;6.03;1.00;;;16.20;99.90;;;;;;5063247;28;20492;-71
2022/11/07 13:12:20;;;;;;;2.88;1.25;;;16.10;99.90;;;;;;5059239;28;20048;-71
2022/11/07 13:14:47;;;;;;;3.97;1.30;;;15.90;99.90;;;;;;5070533;28;20028;-70
2022/11/07 13:17:16;;;;;;;4.38;1.60;;;15.80;99.90;;;;;;5073071;28;20025;-75
2022/11/07 13:19:44;;;;;;;6.17;1.10;;;15.70;99.90;;;;;;5072723;28;20052;-71
2022/11/07 13:22:15;;;;;;;3.78;0.98;;;15.70;99.90;;;;;;5074526;28;20482;-72
2022/11/07 13:25:10;;;;;;;3.75;1.10;;;15.60;99.90;;;;;;5072798;28;20069;-71
2022/11/07 13:27:39;;;;;;;5.10;1.08;;;15.50;99.90;;;;;;5062978;28;20032;-71
2022/11/07 13:30:13;;;;;;;6.53;1.50;;;15.50;99.90;;;;;;5072597;28;20024;-71
2022/11/07 13:32:47;;;;;;;5.65;1.13;;;15.50;99.90;;;;;;5065172;28;20020;-69
2022/11/07 13:35:22;;;;;;;2.10;0.75;;;15.50;99.90;;;;;;5050656;28;20097;-75
2022/11/07 13:38:15;;;;;;;3.47;1.10;;;15.50;99.90;;;;;;5080571;28;20052;-70
2022/11/07 13:41:02;;;;;;;3.33;0.90;;;15.50;99.90;;;;;;5071690;28;20079;-70
2022/11/07 13:43:46;;;;;;;4.20;1.20;;;15.50;99.90;;;;;;5092598;28;20028;-71